Time;durP1;ratioP1;P1;durP2;ratioP2;P2;SDS_P1;SDS_P2;PMS_P1;PMS_P2;Temp;Humidity;BMP_temperature;BMP_pressure;BME280_temperature;BME280_humidity;BME280_pressure;Samples;Min_cycle;Max_cycle;Signal;HPM_P1;HPM_P2
2024/01/30 00:01:47;;;;;;;;;;;;;;;;;;5034764;28;19931;-71
2024/01/30 00:04:14;;;;;;;;;;;;;;;;;;5035001;28;19999;-71
2024/01/30 00:06:41;;;;;;;;;;;;;;;;;;5033443;28;20347;-70
2024/01/30 00:09:08;;;;;;;;;;;;;;;;;;5034074;28;19948;-71
2024/01/30 00:11:35;;;;;;;;;;;;;;;;;;5034182;28;19925;-71
2024/01/30 00:14:03;;;;;;;;;;;;;;;;;;5035703;28;19929;-72
2024/01/30 00:16:30;;;;;;;;;;;;;;;;;;5034316;28;19975;-71
2024/01/30 00:18:57;;;;;;;;;;;;;;;;;;5034857;28;19925;-72
2024/01/30 00:21:24;;;;;;;;;;;;;;;;;;5034594;28;19925;-72
2024/01/30 00:23:51;;;;;;;;;;;;;;;;;;5039499;28;19929;-71
2024/01/30 00:26:18;;;;;;;;;;;;;;;;;;5033704;28;19932;-70
2024/01/30 00:28:45;;;;;;;;;;;;;;;;;;5034001;28;19929;-70
2024/01/30 00:31:12;;;;;;;;;;;;;;;;;;5035431;28;20367;-70
2024/01/30 00:33:39;;;;;;;;;;;;;;;;;;5034414;28;20325;-70
2024/01/30 00:36:08;;;;;;;;;;;;;;;;;;5041945;28;19979;-70
2024/01/30 00:38:35;;;;;;;;;;;;;;;;;;5031723;28;19924;-71
2024/01/30 00:41:02;;;;;;;;;;;;;;;;;;5033208;28;20454;-70
2024/01/30 00:43:31;;;;;;;;;;;;;;;;;;5034615;28;20020;-71
2024/01/30 00:45:58;;;;;;;;;;;;;;;;;;5034457;28;19932;-71
2024/01/30 00:48:25;;;;;;;;;;;;;;;;;;5034076;28;19929;-72
2024/01/30 00:50:52;;;;;;;;;;;;;;;;;;5033445;28;19929;-71
2024/01/30 00:53:19;;;;;;;;;;;;;;;;;;5033107;28;19978;-70
2024/01/30 00:55:46;;;;;;;;;;;;;;;;;;5039460;28;19925;-71
2024/01/30 00:58:13;;;;;;;;;;;;;;;;;;5033562;28;19929;-70
2024/01/30 01:00:40;;;;;;;;;;;;;;;;;;5033566;28;20352;-70
2024/01/30 01:03:07;;;;;;;;;;;;;;;;;;5034811;28;19925;-70
2024/01/30 01:05:34;;;;;;;;;;;;;;;;;;5038186;28;19979;-70
2024/01/30 01:08:01;;;;;;;;;;;;;;;;;;5032233;28;19925;-71
2024/01/30 01:10:28;;;;;;;;;;;;;;;;;;5032954;28;19925;-71
2024/01/30 01:12:55;;;;;;;;;;;;;;;;;;5032482;28;19925;-71
2024/01/30 01:15:22;;;;;;;;;;;;;;;;;;5033352;28;20388;-70
2024/01/30 01:17:49;;;;;;;;;;;;;;;;;;5033039;28;20403;-71
2024/01/30 01:20:16;;;;;;;;;;;;;;;;;;5032470;28;20017;-71
2024/01/30 01:22:43;;;;;;;;;;;;;;;;;;5032354;28;19979;-70
2024/01/30 01:25:10;;;;;;;;;;;;;;;;;;5031960;28;20355;-71
2024/01/30 01:27:40;;;;;;;;;;;;;;;;;;5032484;28;20028;-72
2024/01/30 01:30:08;;;;;;;;;;;;;;;;;;5032203;28;19925;-71
2024/01/30 01:32:36;;;;;;;;;;;;;;;;;;5032228;28;19925;-71
2024/01/30 01:35:05;;;;;;;;;;;;;;;;;;5032920;28;19968;-71
2024/01/30 01:37:32;;;;;;;;;;;;;;;;;;5035002;28;19929;-70
2024/01/30 01:39:59;;;;;;;;;;;;;;;;;;5032335;28;19968;-71
2024/01/30 01:42:26;;;;;;;;;;;;;;;;;;5032077;28;19971;-71
2024/01/30 01:44:53;;;;;;;;;;;;;;;;;;5032699;28;20331;-71
2024/01/30 01:47:20;;;;;;;;;;;;;;;;;;5023561;28;19948;-71
2024/01/30 01:49:47;;;;;;;;;;;;;;;;;;5031701;28;19976;-71
2024/01/30 01:52:14;;;;;;;;;;;;;;;;;;5031859;28;19925;-71
2024/01/30 01:54:41;;;;;;;;;;;;;;;;;;5033890;28;19952;-71
2024/01/30 01:57:08;;;;;;;;;;;;;;;;;;5032576;28;19932;-71
2024/01/30 01:59:35;;;;;;;;;;;;;;;;;;5032315;28;19983;-71
2024/01/30 02:02:02;;;;;;;;;;;;;;;;;;5032492;28;19925;-70
2024/01/30 02:04:30;;;;;;;;;;;;;;;;;;5032705;28;19925;-71
2024/01/30 02:06:57;;;;;;;;;;;;;;;;;;5044121;28;19926;-71
2024/01/30 02:09:24;;;;;;;;;;;;;;;;;;5032382;28;19929;-71
2024/01/30 02:11:51;;;;;;;;;;;;;;;;;;5032335;28;19995;-71
2024/01/30 02:14:18;;;;;;;;;;;;;;;;;;5031958;28;20351;-70
2024/01/30 02:16:45;;;;;;;;;;;;;;;;;;5031458;28;19925;-71
2024/01/30 02:19:12;;;;;;;;;;;;;;;;;;5034268;28;19929;-71
2024/01/30 02:21:39;;;;;;;;;;;;;;;;;;5032199;28;19992;-71
2024/01/30 02:24:06;;;;;;;;;;;;;;;;;;5032219;28;19932;-70
2024/01/30 02:26:33;;;;;;;;;;;;;;;;;;5031427;28;20355;-71
2024/01/30 02:29:00;;;;;;;;;;;;;;;;;;5040524;28;19925;-71
2024/01/30 02:31:27;;;;;;;;;;;;;;;;;;5031549;28;19925;-71
2024/01/30 02:33:54;;;;;;;;;;;;;;;;;;5032057;28;19987;-71
2024/01/30 02:36:21;;;;;;;;;;;;;;;;;;5031916;28;19925;-71
2024/01/30 02:38:48;;;;;;;;;;;;;;;;;;5040691;28;19994;-71
2024/01/30 02:41:15;;;;;;;;;;;;;;;;;;5034183;28;19983;-71
2024/01/30 02:43:42;;;;;;;;;;;;;;;;;;5042609;28;19924;-70
2024/01/30 02:46:09;;;;;;;;;;;;;;;;;;5041251;28;19932;-71
2024/01/30 02:48:38;;;;;;;;;;;;;;;;;;5015121;28;19926;-71
2024/01/30 02:51:05;;;;;;;;;;;;;;;;;;5025184;28;19956;-71
2024/01/30 02:53:32;;;;;;;;;;;;;;;;;;5030916;28;19929;-71
2024/01/30 02:55:59;;;;;;;;;;;;;;;;;;5031240;28;20331;-70
2024/01/30 02:58:26;;;;;;;;;;;;;;;;;;5030367;28;19925;-70
2024/01/30 03:00:53;;;;;;;;;;;;;;;;;;5031842;28;19926;-71
2024/01/30 03:03:21;;;;;;;;;;;;;;;;;;5031783;28;19925;-71
2024/01/30 03:05:48;;;;;;;;;;;;;;;;;;5046139;28;19925;-71
2024/01/30 03:08:15;;;;;;;;;;;;;;;;;;5039283;28;19932;-71
2024/01/30 03:10:42;;;;;;;;;;;;;;;;;;5031010;28;19979;-71
2024/01/30 03:13:09;;;;;;;;;;;;;;;;;;5031072;28;19925;-71
2024/01/30 03:15:36;;;;;;;;;;;;;;;;;;5032152;28;19929;-71
2024/01/30 03:18:03;;;;;;;;;;;;;;;;;;5032483;28;20450;-70
2024/01/30 03:20:31;;;;;;;;;;;;;;;;;;5047606;28;19968;-70
2024/01/30 03:22:58;;;;;;;;;;;;;;;;;;5035624;28;19925;-71
2024/01/30 03:25:25;;;;;;;;;;;;;;;;;;5035254;28;19925;-70
2024/01/30 03:27:52;;;;;;;;;;;;;;;;;;5035033;28;19971;-70
2024/01/30 03:30:19;;;;;;;;;;;;;;;;;;5033629;28;19932;-71
2024/01/30 03:32:46;;;;;;;;;;;;;;;;;;5034897;28;19932;-70
2024/01/30 03:35:13;;;;;;;;;;;;;;;;;;5035484;28;19929;-70
2024/01/30 03:37:40;;;;;;;;;;;;;;;;;;5035616;28;20512;-70
2024/01/30 03:40:07;;;;;;;;;;;;;;;;;;5033930;28;19979;-70
2024/01/30 03:42:34;;;;;;;;;;;;;;;;;;5034820;28;19972;-71
2024/01/30 03:45:01;;;;;;;;;;;;;;;;;;5035016;28;19925;-71
2024/01/30 03:47:28;;;;;;;;;;;;;;;;;;5034555;28;19929;-71
2024/01/30 03:49:55;;;;;;;;;;;;;;;;;;5034654;28;20343;-71
2024/01/30 03:52:22;;;;;;;;;;;;;;;;;;5034651;28;20415;-71
2024/01/30 03:54:49;;;;;;;;;;;;;;;;;;5044577;28;19925;-71
2024/01/30 03:57:16;;;;;;;;;;;;;;;;;;5033696;28;19963;-71
2024/01/30 03:59:43;;;;;;;;;;;;;;;;;;5034250;28;19932;-71
2024/01/30 04:02:12;;;;;;;;;;;;;;;;;;5033461;28;21641;-71
2024/01/30 04:04:39;;;;;;;;;;;;;;;;;;5032975;28;20047;-71
2024/01/30 04:07:06;;;;;;;;;;;;;;;;;;5033124;28;19932;-71
2024/01/30 04:09:33;;;;;;;;;;;;;;;;;;5037805;28;19983;-71
2024/01/30 04:12:02;;;;;;;;;;;;;;;;;;5040720;28;19978;-72
2024/01/30 04:14:29;;;;;;;;;;;;;;;;;;5040052;28;19925;-71
2024/01/30 04:16:56;;;;;;;;;;;;;;;;;;5033845;28;19925;-71
2024/01/30 04:19:23;;;;;;;;;;;;;;;;;;5034728;28;19969;-71
2024/01/30 04:21:50;;;;;;;;;;;;;;;;;;5035287;28;19972;-71
2024/01/30 04:24:18;;;;;;;;;;;;;;;;;;5047471;28;19971;-71
2024/01/30 04:26:45;;;;;;;;;;;;;;;;;;5035852;28;19952;-71
2024/01/30 04:29:15;;;;;;;;;;;;;;;;;;5033350;28;19933;-71
2024/01/30 04:31:42;;;;;;;;;;;;;;;;;;5034199;28;19984;-71
2024/01/30 04:34:09;;;;;;;;;;;;;;;;;;5034674;28;19980;-72
2024/01/30 04:36:38;;;;;;;;;;;;;;;;;;5042423;28;20039;-72
2024/01/30 04:39:05;;;;;;;;;;;;;;;;;;5035727;28;20295;-70
2024/01/30 04:41:33;;;;;;;;;;;;;;;;;;5034248;28;19944;-70
2024/01/30 04:44:00;;;;;;;;;;;;;;;;;;5034739;28;20016;-71
2024/01/30 04:46:28;;;;;;;;;;;;;;;;;;5033862;28;19929;-71
2024/01/30 04:48:55;;;;;;;;;;;;;;;;;;5033664;28;20028;-71
2024/01/30 04:51:22;;;;;;;;;;;;;;;;;;5033817;28;19987;-71
2024/01/30 04:53:49;;;;;;;;;;;;;;;;;;5031104;28;19925;-72
2024/01/30 04:56:16;;;;;;;;;;;;;;;;;;5033671;28;20274;-69
2024/01/30 04:58:43;;;;;;;;;;;;;;;;;;5033926;28;19979;-71
2024/01/30 05:01:10;;;;;;;;;;;;;;;;;;5034321;28;19932;-71
2024/01/30 05:03:37;;;;;;;;;;;;;;;;;;5037919;28;19932;-71
2024/01/30 05:06:04;;;;;;;;;;;;;;;;;;5032690;28;19929;-71
2024/01/30 05:08:32;;;;;;;;;;;;;;;;;;5033420;28;19975;-71
2024/01/30 05:10:59;;;;;;;;;;;;;;;;;;5032813;28;20476;-71
2024/01/30 05:13:26;;;;;;;;;;;;;;;;;;5036789;28;19925;-71
2024/01/30 05:15:53;;;;;;;;;;;;;;;;;;5032967;28;19925;-71
2024/01/30 05:18:20;;;;;;;;;;;;;;;;;;5034947;28;19932;-72
2024/01/30 05:20:47;;;;;;;;;;;;;;;;;;5033348;28;19925;-72
2024/01/30 05:23:14;;;;;;;;;;;;;;;;;;5033239;28;19929;-72
2024/01/30 05:25:41;;;;;;;;;;;;;;;;;;5034099;28;19995;-72
2024/01/30 05:28:08;;;;;;;;;;;;;;;;;;5031892;28;19925;-72
2024/01/30 05:30:36;;;;;;;;;;;;;;;;;;5037104;28;20058;-71
2024/01/30 05:33:03;;;;;;;;;;;;;;;;;;5033044;28;20384;-72
2024/01/30 05:35:31;;;;;;;;;;;;;;;;;;5032510;28;19925;-71
2024/01/30 05:37:58;;;;;;;;;;;;;;;;;;5042812;28;19925;-70
2024/01/30 05:40:25;;;;;;;;;;;;;;;;;;5031078;28;20357;-72
2024/01/30 05:42:52;;;;;;;;;;;;;;;;;;5032964;28;19932;-72
2024/01/30 05:45:19;;;;;;;;;;;;;;;;;;5032408;28;19925;-72
2024/01/30 05:47:46;;;;;;;;;;;;;;;;;;5032648;28;19979;-71
2024/01/30 05:50:14;;;;;;;;;;;;;;;;;;5032303;28;19992;-72
2024/01/30 05:52:41;;;;;;;;;;;;;;;;;;5037688;28;19932;-72
2024/01/30 05:55:08;;;;;;;;;;;;;;;;;;5045824;28;19933;-70
2024/01/30 05:57:35;;;;;;;;;;;;;;;;;;5031917;28;20352;-70
2024/01/30 06:00:03;;;;;;;;;;;;;;;;;;5032745;28;19925;-70
2024/01/30 06:02:30;;;;;;;;;;;;;;;;;;5032251;28;19968;-72
2024/01/30 06:04:57;;;;;;;;;;;;;;;;;;5032149;28;19983;-71
2024/01/30 06:07:24;;;;;;;;;;;;;;;;;;5031150;28;20067;-71
2024/01/30 06:09:51;;;;;;;;;;;;;;;;;;5037115;28;19967;-71
2024/01/30 06:12:18;;;;;;;;;;;;;;;;;;5032432;28;19932;-71
2024/01/30 06:14:45;;;;;;;;;;;;;;;;;;5031252;28;19925;-71
2024/01/30 06:17:13;;;;;;;;;;;;;;;;;;5031555;28;19926;-71
2024/01/30 06:19:41;;;;;;;;;;;;;;;;;;5032506;28;19925;-78
2024/01/30 06:22:08;;;;;;;;;;;;;;;;;;5031638;28;20372;-79
2024/01/30 06:24:35;;;;;;;;;;;;;;;;;;5032198;28;19987;-80
2024/01/30 06:27:02;;;;;;;;;;;;;;;;;;5033993;28;19979;-82
2024/01/30 06:29:29;;;;;;;;;;;;;;;;;;5030642;28;19979;-80
2024/01/30 06:31:57;;;;;;;;;;;;;;;;;;5033587;28;19932;-79
2024/01/30 06:34:26;;;;;;;;;;;;;;;;;;5038239;28;19925;-80
2024/01/30 06:36:53;;;;;;;;;;;;;;;;;;5032099;28;20335;-81
2024/01/30 06:39:20;;;;;;;;;;;;;;;;;;5032760;28;20016;-80
2024/01/30 06:41:47;;;;;;;;;;;;;;;;;;5031362;28;19925;-81
2024/01/30 06:44:14;;;;;;;;;;;;;;;;;;5032391;28;19925;-80
2024/01/30 06:46:41;;;;;;;;;;;;;;;;;;5032928;28;20293;-78
2024/01/30 06:49:08;;;;;;;;;;;;;;;;;;5037160;28;19957;-78
2024/01/30 06:51:35;;;;;;;;;;;;;;;;;;5033999;28;19925;-79
2024/01/30 06:54:02;;;;;;;;;;;;;;;;;;5033223;28;20360;-78
2024/01/30 06:56:29;;;;;;;;;;;;;;;;;;5039180;28;19986;-80
2024/01/30 06:58:58;;;;;;;;;;;;;;;;;;5037129;28;21649;-80
2024/01/30 07:01:25;;;;;;;;;;;;;;;;;;5027309;28;19933;-79
2024/01/30 07:03:52;;;;;;;;;;;;;;;;;;5024442;28;19937;-76
2024/01/30 07:06:20;;;;;;;;;;;;;;;;;;5014246;28;20434;-79
2024/01/30 07:08:47;;;;;;;;;;;;;;;;;;5019772;28;19932;-79
2024/01/30 07:11:14;;;;;;;;;;;;;;;;;;5015982;28;19933;-77
2024/01/30 07:13:42;;;;;;;;;;;;;;;;;;5023161;28;19933;-80
2024/01/30 07:16:09;;;;;;;;;;;;;;;;;;5021426;28;19975;-80
2024/01/30 07:18:36;;;;;;;;;;;;;;;;;;5019095;28;20350;-80
2024/01/30 07:21:03;;;;;;;;;;;;;;;;;;5015298;28;19925;-75
2024/01/30 07:23:30;;;;;;;;;;;;;;;;;;5018107;28;19940;-73
2024/01/30 07:25:57;;;;;;;;;;;;;;;;;;5021851;28;19932;-80
2024/01/30 07:28:24;;;;;;;;;;;;;;;;;;5023713;28;20037;-80
2024/01/30 07:30:51;;;;;;;;;;;;;;;;;;5020314;28;19963;-82
2024/01/30 07:33:18;;;;;;;;;;;;;;;;;;5016501;28;19939;-79
2024/01/30 07:35:45;;;;;;;;;;;;;;;;;;5017455;28;19937;-78
2024/01/30 07:38:12;;;;;;;;;;;;;;;;;;5020989;28;20426;-78
2024/01/30 07:40:40;;;;;;;;;;;;;;;;;;5031757;28;19925;-80
2024/01/30 07:43:07;;;;;;;;;;;;;;;;;;5028414;28;19936;-80
2024/01/30 07:45:34;;;;;;;;;;;;;;;;;;5031219;28;19925;-76
2024/01/30 07:48:01;;;;;;;;;;;;;;;;;;5032803;28;20041;-78
2024/01/30 07:50:28;;;;;;;;;;;;;;;;;;5027808;28;19925;-77
2024/01/30 07:52:55;;;;;;;;;;;;;;;;;;5043410;28;20384;-77
2024/01/30 07:55:24;;;;;;;;;;;;;;;;;;5028030;28;19964;-76
2024/01/30 07:57:51;;;;;;;;;;;;;;;;;;5016595;28;19925;-76
2024/01/30 08:00:19;;;;;;;;;;;;;;;;;;5025615;28;20457;-77
2024/01/30 08:02:46;;;;;;;;;;;;;;;;;;5018676;28;20384;-73
2024/01/30 08:05:15;;;;;;;;;;;;;;;;;;5026413;28;19925;-76
2024/01/30 08:07:42;;;;;;;;;;;;;;;;;;5026081;28;19936;-76
2024/01/30 08:10:09;;;;;;;;;;;;;;;;;;5030659;28;20474;-76
2024/01/30 08:12:36;;;;;;;;;;;;;;;;;;5030688;28;19973;-72
2024/01/30 08:15:03;;;;;;;;;;;;;;;;;;5030000;28;20398;-73
2024/01/30 08:17:30;;;;;;;;;;;;;;;;;;5029716;28;20016;-74
2024/01/30 08:19:57;;;;;;;;;;;;;;;;;;5028927;28;19987;-73
2024/01/30 08:22:24;;;;;;;;;;;;;;;;;;5027675;28;20490;-77
2024/01/30 08:24:51;;;;;;;;;;;;;;;;;;5058834;22;19925;-76
2024/01/30 08:27:18;;;;;;;;;;;;;;;;;;5045886;28;20003;-77
2024/01/30 08:29:45;;;;;;;;;;;;;;;;;;5051716;28;19968;-75
2024/01/30 08:32:12;;;;;;;;;;;;;;;;;;5048290;28;19940;-76
2024/01/30 08:34:39;;;;;;;;;;;;;;;;;;5049917;28;20466;-76
2024/01/30 08:37:06;;;;;;;;;;;;;;;;;;5048420;28;19995;-78
2024/01/30 08:39:33;;;;;;;;;;;;;;;;;;5047496;28;20387;-76
2024/01/30 08:42:00;;;;;;;;;;;;;;;;;;5052083;28;19986;-77
2024/01/30 08:44:28;;;;;;;;;;;;;;;;;;5050877;28;20029;-77
2024/01/30 08:46:55;;;;;;;;;;;;;;;;;;5050484;28;19939;-76
2024/01/30 08:49:22;;;;;;;;;;;;;;;;;;5048057;28;19975;-77
2024/01/30 08:51:50;;;;;;;;;;;;;;;;;;5047211;28;20202;-76
2024/01/30 08:54:17;;;;;;;;;;;;;;;;;;5038206;28;20081;-77
2024/01/30 08:56:44;;;;;;;;;;;;;;;;;;5054081;28;20376;-78
2024/01/30 08:59:11;;;;;;;;;;;;;;;;;;5051221;28;19928;-78
2024/01/30 09:01:38;;;;;;;;;;;;;;;;;;5045128;28;19933;-79
2024/01/30 09:04:05;;;;;;;;;;;;;;;;;;5044249;28;19928;-78
2024/01/30 09:06:32;;;;;;;;;;;;;;;;;;5044853;28;20016;-79
2024/01/30 09:08:59;;;;;;;;;;;;;;;;;;5051652;28;19925;-80
2024/01/30 09:11:26;;;;;;;;;;;;;;;;;;5053931;28;19924;-78
2024/01/30 09:13:53;;;;;;;;;;;;;;;;;;5050052;28;19975;-78
2024/01/30 09:16:21;;;;;;;;;;;;;;;;;;5046682;28;19972;-79
2024/01/30 09:18:48;;;;;;;;;;;;;;;;;;5042616;28;19925;-77
2024/01/30 09:21:15;;;;;;;;;;;;;;;;;;5049327;28;19929;-79
2024/01/30 09:23:42;;;;;;;;;;;;;;;;;;5050963;28;20390;-80
2024/01/30 09:26:09;;;;;;;;;;;;;;;;;;5052524;28;19925;-79
2024/01/30 09:28:36;;;;;;;;;;;;;;;;;;5041695;28;20013;-80
2024/01/30 09:31:03;;;;;;;;;;;;;;;;;;5051798;28;19925;-80
2024/01/30 09:33:30;;;;;;;;;;;;;;;;;;5049766;28;19925;-81
2024/01/30 09:35:57;;;;;;;;;;;;;;;;;;5048199;28;19986;-79
2024/01/30 09:38:24;;;;;;;;;;;;;;;;;;5051577;28;19979;-80
2024/01/30 09:40:51;;;;;;;;;;;;;;;;;;5052367;28;19970;-79
2024/01/30 09:43:18;;;;;;;;;;;;;;;;;;5051214;28;19986;-81
2024/01/30 09:45:45;;;;;;;;;;;;;;;;;;5048820;28;20002;-82
2024/01/30 09:48:12;;;;;;;;;;;;;;;;;;5051075;28;19932;-76
2024/01/30 09:50:39;;;;;;;;;;;;;;;;;;5051125;28;19933;-77
2024/01/30 09:53:06;;;;;;;;;;;;;;;;;;5051739;28;19925;-79
2024/01/30 09:55:33;;;;;;;;;;;;;;;;;;5038892;28;19986;-75
2024/01/30 09:58:00;;;;;;;;;;;;;;;;;;5043647;28;19925;-77
2024/01/30 10:00:28;;;;;;;;;;;;;;;;;;5038645;28;19924;-77
2024/01/30 10:02:55;;;;;;;;;;;;;;;;;;5051391;28;20388;-78
2024/01/30 10:05:22;;;;;;;;;;;;;;;;;;5049512;28;19990;-77
2024/01/30 10:07:49;;;;;;;;;;;;;;;;;;5051131;28;19925;-77
2024/01/30 10:10:16;;;;;;;;;;;;;;;;;;5051576;28;20042;-78
2024/01/30 10:12:43;;;;;;;;;;;;;;;;;;5044082;28;20395;-78
2024/01/30 10:15:10;;;;;;;;;;;;;;;;;;5051796;28;19928;-80
2024/01/30 10:17:37;;;;;;;;;;;;;;;;;;5048681;28;19929;-78
2024/01/30 10:20:04;;;;;;;;;;;;;;;;;;5049804;28;20445;-80
2024/01/30 10:22:31;;;;;;;;;;;;;;;;;;5038029;28;20330;-76
2024/01/30 10:24:58;;;;;;;;;;;;;;;;;;5048583;28;19979;-76
2024/01/30 10:27:25;;;;;;;;;;;;;;;;;;5048159;28;20042;-77
2024/01/30 10:29:52;;;;;;;;;;;;;;;;;;5050521;28;20376;-80
2024/01/30 10:32:19;;;;;;;;;;;;;;;;;;5050388;28;19933;-78
2024/01/30 10:34:46;;;;;;;;;;;;;;;;;;5043414;28;19932;-77
2024/01/30 10:37:15;;;;;;;;;;;;;;;;;;5049009;28;19925;-79
2024/01/30 10:39:42;;;;;;;;;;;;;;;;;;5050480;28;19925;-76
2024/01/30 10:42:09;;;;;;;;;;;;;;;;;;5048233;28;19974;-76
2024/01/30 10:44:36;;;;;;;;;;;;;;;;;;5050445;28;20346;-78
2024/01/30 10:47:03;;;;;;;;;;;;;;;;;;5048229;28;19925;-78
2024/01/30 10:49:30;;;;;;;;;;;;;;;;;;5038832;28;19924;-76
2024/01/30 10:51:57;;;;;;;;;;;;;;;;;;5047611;28;19967;-74
2024/01/30 10:54:24;;;;;;;;;;;;;;;;;;5049210;28;19925;-72
2024/01/30 10:56:51;;;;;;;;;;;;;;;;;;5051378;28;20380;-78
2024/01/30 10:59:18;;;;;;;;;;;;;;;;;;5051364;28;20010;-68
2024/01/30 11:01:45;;;;;;;;;;;;;;;;;;5048993;28;20280;-67
2024/01/30 11:04:13;;;;;;;;;;;;;;;;;;5046907;28;19999;-68
2024/01/30 11:06:40;;;;;;;;;;;;;;;;;;5048137;28;19937;-68
2024/01/30 11:09:09;;;;;;;;;;;;;;;;;;5047429;28;20014;-69
2024/01/30 11:11:36;;;;;;;;;;;;;;;;;;5044113;28;20251;-68
2024/01/30 11:14:03;;;;;;;;;;;;;;;;;;5043322;28;19925;-69
2024/01/30 11:16:30;;;;;;;;;;;;;;;;;;5044669;28;20111;-77
2024/01/30 11:18:57;;;;;;;;;;;;;;;;;;5046157;28;19924;-77
2024/01/30 11:21:24;;;;;;;;;;;;;;;;;;5043228;28;19933;-77
2024/01/30 11:23:51;;;;;;;;;;;;;;;;;;5043753;28;20326;-78
2024/01/30 11:26:20;;;;;;;;;;;;;;;;;;5043235;28;19925;-77
2024/01/30 11:28:47;;;;;;;;;;;;;;;;;;5042785;28;19931;-78
2024/01/30 11:31:14;;;;;;;;;;;;;;;;;;5048343;28;19925;-78
2024/01/30 11:33:41;;;;;;;;;;;;;;;;;;5050073;28;19928;-75
2024/01/30 11:36:08;;;;;;;;;;;;;;;;;;5051033;28;19975;-78
2024/01/30 11:38:35;;;;;;;;;;;;;;;;;;5047576;28;19983;-78
2024/01/30 11:41:03;;;;;;;;;;;;;;;;;;5045656;28;19932;-78
2024/01/30 11:43:30;;;;;;;;;;;;;;;;;;5051552;28;20423;-77
2024/01/30 11:45:57;;;;;;;;;;;;;;;;;;5045063;28;19924;-79
2024/01/30 11:48:24;;;;;;;;;;;;;;;;;;5045594;28;20041;-77
2024/01/30 11:50:51;;;;;;;;;;;;;;;;;;5054363;28;20022;-82
2024/01/30 11:53:18;;;;;;;;;;;;;;;;;;5052078;28;19925;-78
2024/01/30 11:55:45;;;;;;;;;;;;;;;;;;5051176;28;19960;-77
2024/01/30 11:58:12;;;;;;;;;;;;;;;;;;5048695;28;19960;-85
2024/01/30 12:00:40;;;;;;;;;;;;;;;;;;5044040;28;19925;-79
2024/01/30 12:03:07;;;;;;;;;;;;;;;;;;5052659;28;19929;-78
2024/01/30 12:05:34;;;;;;;;;;;;;;;;;;5052247;28;19929;-78
2024/01/30 12:08:01;;;;;;;;;;;;;;;;;;5049412;28;19963;-81
2024/01/30 12:10:28;;;;;;;;;;;;;;;;;;5044874;28;19925;-79
2024/01/30 12:12:55;;;;;;;;;;;;;;;;;;5046829;28;19960;-83
2024/01/30 12:15:22;;;;;;;;;;;;;;;;;;5053299;28;20073;-79
2024/01/30 12:17:49;;;;;;;;;;;;;;;;;;5049370;28;20750;-78
2024/01/30 12:20:17;;;;;;;;;;;;;;;;;;5053610;28;19928;-74
2024/01/30 12:22:44;;;;;;;;;;;;;;;;;;5053177;28;19925;-76
2024/01/30 12:25:11;;;;;;;;;;;;;;;;;;5049644;28;20454;-78
2024/01/30 12:27:38;;;;;;;;;;;;;;;;;;5053301;28;19925;-76
2024/01/30 12:30:05;;;;;;;;;;;;;;;;;;5046027;28;19933;-74
2024/01/30 12:32:32;;;;;;;;;;;;;;;;;;5051231;28;19960;-74
2024/01/30 12:34:59;;;;;;;;;;;;;;;;;;5053403;28;19972;-75
2024/01/30 12:37:26;;;;;;;;;;;;;;;;;;5053304;28;19932;-75
2024/01/30 12:39:53;;;;;;;;;;;;;;;;;;5054397;28;19959;-76
2024/01/30 12:42:21;;;;;;;;;;;;;;;;;;5043003;28;19931;-75
2024/01/30 12:44:48;;;;;;;;;;;;;;;;;;5051961;28;19960;-76
2024/01/30 12:47:16;;;;;;;;;;;;;;;;;;5052505;28;19924;-78
2024/01/30 12:49:44;;;;;;;;;;;;;;;;;;5051664;28;20012;-79
2024/01/30 12:52:11;;;;;;;;;;;;;;;;;;5052801;28;19924;-81
2024/01/30 12:54:38;;;;;;;;;;;;;;;;;;5051932;28;19932;-76
2024/01/30 12:57:05;;;;;;;;;;;;;;;;;;5051241;28;19925;-77
2024/01/30 12:59:32;;;;;;;;;;;;;;;;;;5052326;28;19990;-76
2024/01/30 13:01:59;;;;;;;;;;;;;;;;;;5045475;28;19928;-75
2024/01/30 13:04:26;;;;;;;;;;;;;;;;;;5057053;22;19928;-76
2024/01/30 13:06:53;;;;;;;;;;;;;;;;;;5070028;28;19964;-74
2024/01/30 13:09:20;;;;;;;;;;;;;;;;;;5064177;28;19979;-78
2024/01/30 13:11:47;;;;;;;;;;;;;;;;;;5068585;28;19932;-77
2024/01/30 13:14:14;;;;;;;;;;;;;;;;;;5067105;28;19931;-76
2024/01/30 13:16:41;;;;;;;;;;;;;;;;;;5071255;28;20288;-74
2024/01/30 13:19:08;;;;;;;;;;;;;;;;;;5071093;28;19985;-77
2024/01/30 13:21:35;;;;;;;;;;;;;;;;;;5071229;28;19958;-75
2024/01/30 13:24:02;;;;;;;;;;;;;;;;;;5067709;28;19925;-75
2024/01/30 13:26:30;;;;;;;;;;;;;;;;;;5072256;28;19986;-75
2024/01/30 13:28:57;;;;;;;;;;;;;;;;;;5072147;28;19964;-73
2024/01/30 13:31:27;;;;;;;;;;;;;;;;;;5059280;28;19928;-73
2024/01/30 13:33:54;;;;;;;;;;;;;;;;;;5070313;28;19929;-75
2024/01/30 13:36:21;;;;;;;;;;;;;;;;;;5066241;28;20311;-74
2024/01/30 13:38:48;;;;;;;;;;;;;;;;;;5071291;28;19925;-73
2024/01/30 13:41:16;;;;;;;;;;;;;;;;;;5069123;28;19932;-74
2024/01/30 13:43:43;;;;;;;;;;;;;;;;;;5067634;28;20395;-75
2024/01/30 13:46:10;;;;;;;;;;;;;;;;;;5069640;28;19924;-75
2024/01/30 13:48:37;;;;;;;;;;;;;;;;;;5072237;28;19932;-74
2024/01/30 13:51:04;;;;;;;;;;;;;;;;;;5060823;28;20429;-74
2024/01/30 13:53:31;;;;;;;;;;;;;;;;;;5061745;28;19925;-72
2024/01/30 13:55:58;;;;;;;;;;;;;;;;;;5069163;28;19956;-71
2024/01/30 13:58:25;;;;;;;;;;;;;;;;;;5064684;28;19924;-73
2024/01/30 14:00:53;;;;;;;;;;;;;;;;;;5070830;28;19924;-72
2024/01/30 14:03:20;;;;;;;;;;;;;;;;;;5071068;28;19928;-72
2024/01/30 14:05:47;;;;;;;;;;;;;;;;;;5070119;28;20379;-72
2024/01/30 14:08:14;;;;;;;;;;;;;;;;;;5068085;28;19925;-72
2024/01/30 14:10:41;;;;;;;;;;;;;;;;;;5068323;28;19967;-72
2024/01/30 14:13:08;;;;;;;;;;;;;;;;;;5059763;28;19929;-72
2024/01/30 14:15:35;;;;;;;;;;;;;;;;;;5070259;28;20295;-69
2024/01/30 14:18:02;;;;;;;;;;;;;;;;;;5067653;28;19977;-72
2024/01/30 14:20:29;;;;;;;;;;;;;;;;;;5062945;28;19932;-70
2024/01/30 14:22:56;;;;;;;;;;;;;;;;;;5075159;28;20344;-68
2024/01/30 14:25:23;;;;;;;;;;;;;;;;;;5066389;28;19928;-74
2024/01/30 14:27:50;;;;;;;;;;;;;;;;;;5068212;28;20013;-76
2024/01/30 14:30:17;;;;;;;;;;;;;;;;;;5067030;28;19924;-74
2024/01/30 14:32:44;;;;;;;;;;;;;;;;;;5066782;28;19924;-76
2024/01/30 14:35:12;;;;;;;;;;;;;;;;;;5069136;28;19924;-76
2024/01/30 14:37:39;;;;;;;;;;;;;;;;;;5065791;28;19924;-76
2024/01/30 14:40:07;;;;;;;;;;;;;;;;;;5068700;28;19970;-76
2024/01/30 14:42:34;;;;;;;;;;;;;;;;;;5064851;28;20007;-75
2024/01/30 14:45:01;;;;;;;;;;;;;;;;;;5061089;28;20392;-75
2024/01/30 14:47:28;;;;;;;;;;;;;;;;;;5070889;28;19924;-73
2024/01/30 14:49:56;;;;;;;;;;;;;;;;;;5065713;28;19932;-75
2024/01/30 14:52:23;;;;;;;;;;;;;;;;;;5069551;28;19931;-74
2024/01/30 14:54:50;;;;;;;;;;;;;;;;;;5069934;28;19931;-76
2024/01/30 14:57:17;;;;;;;;;;;;;;;;;;5069361;28;20328;-74
2024/01/30 14:59:44;;;;;;;;;;;;;;;;;;5070512;28;19925;-73
2024/01/30 15:02:11;;;;;;;;;;;;;;;;;;5065236;28;20015;-74
2024/01/30 15:04:38;;;;;;;;;;;;;;;;;;5068367;28;20023;-75
2024/01/30 15:07:05;;;;;;;;;;;;;;;;;;5067439;28;20303;-74
2024/01/30 15:09:32;;;;;;;;;;;;;;;;;;5070127;28;19931;-74
2024/01/30 15:11:59;;;;;;;;;;;;;;;;;;5070197;28;19924;-78
2024/01/30 15:14:26;;;;;;;;;;;;;;;;;;5071128;28;19933;-80
2024/01/30 15:16:53;;;;;;;;;;;;;;;;;;5073353;28;19932;-76
2024/01/30 15:19:20;;;;;;;;;;;;;;;;;;5074110;28;19970;-75
2024/01/30 15:21:47;;;;;;;;;;;;;;;;;;5074779;28;19925;-74
2024/01/30 15:24:16;;;;;;;;;;;;;;;;;;5071832;28;19932;-70
2024/01/30 15:26:44;;;;;;;;;;;;;;;;;;5068750;28;19924;-75
2024/01/30 15:29:11;;;;;;;;;;;;;;;;;;5074564;28;19931;-73
2024/01/30 15:31:38;;;;;;;;;;;;;;;;;;5072077;28;19925;-74
2024/01/30 15:34:05;;;;;;;;;;;;;;;;;;5065021;28;19935;-72
2024/01/30 15:36:32;;;;;;;;;;;;;;;;;;5068152;28;19932;-73
2024/01/30 15:38:59;;;;;;;;;;;;;;;;;;5066898;28;19979;-72
2024/01/30 15:41:26;;;;;;;;;;;;;;;;;;5066857;28;19978;-73
2024/01/30 15:43:53;;;;;;;;;;;;;;;;;;5074213;28;20313;-72
2024/01/30 15:46:20;;;;;;;;;;;;;;;;;;5073474;28;19932;-73
2024/01/30 15:48:48;;;;;;;;;;;;;;;;;;5074401;28;19935;-75
2024/01/30 15:51:15;;;;;;;;;;;;;;;;;;5073346;28;19975;-75
2024/01/30 15:53:42;;;;;;;;;;;;;;;;;;5069156;28;19947;-75
2024/01/30 15:56:09;;;;;;;;;;;;;;;;;;5062294;28;20536;-75
2024/01/30 15:58:36;;;;;;;;;;;;;;;;;;5071442;28;20037;-74
2024/01/30 16:01:03;;;;;;;;;;;;;;;;;;5057267;28;19936;-72
2024/01/30 16:03:30;;;;;;;;;;;;;;;;;;5068205;28;20454;-76
2024/01/30 16:05:57;;;;;;;;;;;;;;;;;;5072784;28;19971;-74
2024/01/30 16:08:24;;;;;;;;;;;;;;;;;;5069721;28;19924;-73
2024/01/30 16:10:51;;;;;;;;;;;;;;;;;;5071038;28;19958;-72
2024/01/30 16:13:18;;;;;;;;;;;;;;;;;;5067612;28;19958;-71
2024/01/30 16:15:48;;;;;;;;;;;;;;;;;;5073602;28;19929;-73
2024/01/30 16:18:15;;;;;;;;;;;;;;;;;;5069670;28;19964;-72
2024/01/30 16:20:43;;;;;;;;;;;;;;;;;;5064887;28;20295;-79
2024/01/30 16:23:10;;;;;;;;;;;;;;;;;;5072297;28;19994;-76
2024/01/30 16:25:37;;;;;;;;;;;;;;;;;;5065148;28;19925;-77
2024/01/30 16:28:04;;;;;;;;;;;;;;;;;;5068094;28;20039;-76
2024/01/30 16:30:31;;;;;;;;;;;;;;;;;;5063007;28;19954;-74
2024/01/30 16:32:59;;;;;;;;;;;;;;;;;;5072028;28;19924;-79
2024/01/30 16:35:26;;;;;;;;;;;;;;;;;;5072240;28;20011;-75
2024/01/30 16:37:53;;;;;;;;;;;;;;;;;;5071601;28;19986;-74
2024/01/30 16:40:20;;;;;;;;;;;;;;;;;;5075498;28;19924;-73
2024/01/30 16:42:47;;;;;;;;;;;;;;;;;;5059803;28;19970;-73
2024/01/30 16:45:14;;;;;;;;;;;;;;;;;;5070624;28;20391;-74